Time;durP1;ratioP1;P1;durP2;ratioP2;P2;SDS_P1;SDS_P2;PMS_P1;PMS_P2;Temp;Humidity;BMP_temperature;BMP_pressure;BME280_temperature;BME280_humidity;BME280_pressure;Samples;Min_cycle;Max_cycle;Signal;HPM_P1;HPM_P2
2023/07/09 00:02:01;;;;;;;14.43;5.82;;;;;;;;;;4967404;28;20210;-72
2023/07/09 00:04:28;;;;;;;10.68;6.10;;;;;;;;;;4973118;28;20254;-72
2023/07/09 00:06:54;;;;;;;7.95;5.00;;;;;;;;;;4972649;28;20716;-72
2023/07/09 00:09:21;;;;;;;6.85;4.43;;;;;;;;;;4971447;28;20697;-72
2023/07/09 00:11:46;;;;;;;7.00;4.32;;;;;;;;;;4972022;28;21348;-72
2023/07/09 00:16:41;;;;;;;6.55;4.82;;;;;;;;;;4946890;28;20315;-66
2023/07/09 00:19:13;;;;;;;7.53;4.85;;;;;;;;;;4951853;28;20310;-67
2023/07/09 00:21:39;;;;;;;10.73;4.18;;;;;;;;;;4950831;28;20824;-67
2023/07/09 00:24:04;;;;;;;8.63;5.50;;;;;;;;;;4947384;28;20197;-68
2023/07/09 00:26:33;;;;;;;6.70;5.35;;;;;;;;;;4950085;28;20592;-67
2023/07/09 00:28:58;;;;;;;6.90;4.70;;;;;;;;;;4949815;28;20862;-67
2023/07/09 00:31:24;;;;;;;8.40;4.85;;;;;;;;;;4947918;28;20195;-67
2023/07/09 00:33:49;;;;;;;7.35;4.60;;;;;;;;;;4951495;28;20192;-67
2023/07/09 00:36:18;;;;;;;8.40;5.10;;;;;;;;;;4951030;28;20208;-67
2023/07/09 00:38:47;;;;;;;9.07;5.20;;;;;;;;;;4952002;28;20582;-67
2023/07/09 00:41:17;;;;;;;6.38;4.68;;;;;;;;;;4944621;28;20197;-67
2023/07/09 00:43:42;;;;;;;6.50;4.63;;;;;;;;;;4950286;28;20233;-67
2023/07/09 00:46:16;;;;;;;7.57;4.85;;;;;;;;;;4947667;28;20411;-67
2023/07/09 00:48:42;;;;;;;9.73;5.38;;;;;;;;;;4950237;28;20197;-68
2023/07/09 00:51:12;;;;;;;8.40;6.00;;;;;;;;;;4948400;28;20600;-68
2023/07/09 00:53:39;;;;;;;9.05;5.32;;;;;;;;;;4947018;28;20227;-68
2023/07/09 00:56:08;;;;;;;7.38;5.25;;;;;;;;;;4949905;28;20414;-68
2023/07/09 00:58:35;;;;;;;6.53;5.07;;;;;;;;;;4949614;28;20262;-67
2023/07/09 01:01:02;;;;;;;6.28;4.85;;;;;;;;;;4949823;28;20634;-67
2023/07/09 01:03:33;;;;;;;8.60;5.68;;;;;;;;;;4949384;28;20274;-67
2023/07/09 01:05:58;;;;;;;8.90;5.78;;;;;;;;;;4948569;28;20713;-67
2023/07/09 01:08:23;;;;;;;9.30;6.00;;;;;;;;;;4947750;28;20197;-67
2023/07/09 01:10:49;;;;;;;10.60;6.38;;;;;;;;;;4948828;28;20593;-67
2023/07/09 01:13:15;;;;;;;9.60;5.68;;;;;;;;;;4948598;28;20277;-67
2023/07/09 01:15:40;;;;;;;8.57;6.13;;;;;;;;;;4945518;28;20212;-67
2023/07/09 01:18:06;;;;;;;9.57;6.00;;;;;;;;;;4949179;28;20184;-67
2023/07/09 01:20:31;;;;;;;10.45;6.15;;;;;;;;;;4948295;28;20216;-67
2023/07/09 01:22:56;;;;;;;7.18;5.72;;;;;;;;;;4949998;28;20947;-67
2023/07/09 01:25:23;;;;;;;6.72;5.50;;;;;;;;;;4949954;28;20208;-67
2023/07/09 01:27:48;;;;;;;9.73;6.05;;;;;;;;;;4947603;28;20193;-66
2023/07/09 01:30:22;;;;;;;8.90;5.63;;;;;;;;;;4949852;28;20198;-66
2023/07/09 01:32:47;;;;;;;9.23;5.47;;;;;;;;;;4945178;28;20195;-67
2023/07/09 01:35:14;;;;;;;8.20;5.20;;;;;;;;;;4949732;28;20212;-68
2023/07/09 01:37:40;;;;;;;9.68;6.32;;;;;;;;;;4949922;28;20181;-68
2023/07/09 01:40:06;;;;;;;9.55;5.47;;;;;;;;;;4949577;28;20219;-68
2023/07/09 01:42:32;;;;;;;13.68;6.18;;;;;;;;;;4949428;28;20184;-68
2023/07/09 01:44:58;;;;;;;8.55;5.95;;;;;;;;;;4950438;28;20215;-68
2023/07/09 01:47:23;;;;;;;8.75;5.80;;;;;;;;;;4949432;28;20208;-68
2023/07/09 01:49:49;;;;;;;7.82;5.70;;;;;;;;;;4950315;28;20944;-68
2023/07/09 01:52:16;;;;;;;10.18;6.00;;;;;;;;;;4948133;28;20652;-68
2023/07/09 01:54:41;;;;;;;7.47;5.72;;;;;;;;;;4948214;28;20212;-68
2023/07/09 01:57:19;;;;;;;14.27;6.88;;;;;;;;;;4949959;28;20864;-67
2023/07/09 01:59:44;;;;;;;7.90;6.30;;;;;;;;;;4943120;28;20790;-68
2023/07/09 02:02:15;;;;;;;8.40;5.75;;;;;;;;;;4944304;28;20195;-68
2023/07/09 02:04:40;;;;;;;9.60;5.82;;;;;;;;;;4949983;28;20205;-68
2023/07/09 02:07:05;;;;;;;12.05;6.40;;;;;;;;;;4948817;28;20188;-67
2023/07/09 02:09:31;;;;;;;8.65;6.00;;;;;;;;;;4948403;28;20239;-67
2023/07/09 02:11:56;;;;;;;9.25;7.25;;;;;;;;;;4947839;28;20268;-68
2023/07/09 02:14:21;;;;;;;9.43;6.53;;;;;;;;;;4947026;28;20283;-68
2023/07/09 02:16:46;;;;;;;6.95;5.90;;;;;;;;;;4947492;28;20196;-68
2023/07/09 02:19:11;;;;;;;12.70;6.18;;;;;;;;;;4947798;28;20224;-68
2023/07/09 02:21:37;;;;;;;9.55;6.63;;;;;;;;;;4945287;28;20199;-68
2023/07/09 02:24:02;;;;;;;8.50;6.38;;;;;;;;;;4947711;28;20181;-68
2023/07/09 02:26:27;;;;;;;10.68;7.15;;;;;;;;;;4948559;28;20208;-68
2023/07/09 02:28:52;;;;;;;12.40;6.70;;;;;;;;;;4950663;28;20240;-68
2023/07/09 02:31:19;;;;;;;10.70;7.32;;;;;;;;;;4948473;28;20647;-68
2023/07/09 02:33:44;;;;;;;12.20;9.02;;;;;;;;;;4951540;28;20181;-68
2023/07/09 02:36:09;;;;;;;12.30;7.38;;;;;;;;;;4948994;28;20222;-68
2023/07/09 02:38:35;;;;;;;12.05;7.20;;;;;;;;;;4947426;28;20222;-68
2023/07/09 02:41:00;;;;;;;11.27;7.43;;;;;;;;;;4953607;28;20204;-68
2023/07/09 02:43:25;;;;;;;11.95;8.35;;;;;;;;;;4954329;28;20188;-68
2023/07/09 02:45:50;;;;;;;11.20;7.47;;;;;;;;;;4952814;28;20208;-68
2023/07/09 02:48:16;;;;;;;12.82;7.20;;;;;;;;;;4951453;28;20269;-68
2023/07/09 02:50:41;;;;;;;10.20;5.85;;;;;;;;;;4951949;28;20248;-68
2023/07/09 02:53:06;;;;;;;10.53;7.03;;;;;;;;;;4951046;28;20239;-68
2023/07/09 02:55:31;;;;;;;7.28;6.00;;;;;;;;;;4953922;28;20441;-68
2023/07/09 02:57:56;;;;;;;10.52;7.35;;;;;;;;;;4952056;28;20192;-68
2023/07/09 03:00:22;;;;;;;12.15;7.25;;;;;;;;;;4950868;28;20215;-68
2023/07/09 03:02:47;;;;;;;11.85;8.02;;;;;;;;;;4952069;28;20235;-68
2023/07/09 03:05:12;;;;;;;13.23;8.13;;;;;;;;;;4951336;28;20255;-68
2023/07/09 03:07:37;;;;;;;16.95;9.50;;;;;;;;;;4952712;28;20674;-68
2023/07/09 03:10:03;;;;;;;14.25;8.52;;;;;;;;;;4953130;28;20584;-68
2023/07/09 03:12:28;;;;;;;11.57;9.60;;;;;;;;;;4950565;28;20215;-68
2023/07/09 03:14:53;;;;;;;12.20;9.85;;;;;;;;;;4951579;28;20338;-68
2023/07/09 03:17:18;;;;;;;12.25;9.40;;;;;;;;;;4950289;28;20247;-68
2023/07/09 03:19:44;;;;;;;12.25;9.27;;;;;;;;;;4950661;28;20260;-67
2023/07/09 03:22:09;;;;;;;11.35;8.85;;;;;;;;;;4951947;28;20263;-68
2023/07/09 03:24:34;;;;;;;10.52;8.60;;;;;;;;;;4952051;28;20217;-67
2023/07/09 03:26:59;;;;;;;12.07;9.43;;;;;;;;;;4951244;28;20188;-67
2023/07/09 03:29:24;;;;;;;15.52;9.93;;;;;;;;;;4950130;28;20235;-67
2023/07/09 03:31:50;;;;;;;14.40;10.80;;;;;;;;;;4951493;28;20219;-68
2023/07/09 03:34:15;;;;;;;15.15;9.88;;;;;;;;;;4950007;28;20203;-68
2023/07/09 03:36:41;;;;;;;15.70;10.40;;;;;;;;;;4951337;28;20219;-67
2023/07/09 03:39:06;;;;;;;16.38;11.18;;;;;;;;;;4951286;28;20213;-67
2023/07/09 03:41:32;;;;;;;16.80;9.25;;;;;;;;;;4949120;28;21155;-67
2023/07/09 03:43:57;;;;;;;13.43;9.27;;;;;;;;;;4952144;28;20185;-67
2023/07/09 03:46:23;;;;;;;15.05;10.48;;;;;;;;;;4949367;28;20204;-67
2023/07/09 03:48:50;;;;;;;14.40;9.95;;;;;;;;;;4950731;28;20663;-67
2023/07/09 03:51:15;;;;;;;14.00;9.45;;;;;;;;;;4949134;28;21097;-67
2023/07/09 03:53:40;;;;;;;12.32;9.50;;;;;;;;;;4950060;28;21050;-66
2023/07/09 03:56:05;;;;;;;10.73;8.95;;;;;;;;;;4951323;28;20235;-66
2023/07/09 03:58:31;;;;;;;11.40;8.43;;;;;;;;;;4949801;28;20192;-67
2023/07/09 04:00:56;;;;;;;19.60;10.13;;;;;;;;;;4951628;28;20187;-68
2023/07/09 04:03:21;;;;;;;13.40;9.50;;;;;;;;;;4950642;28;20192;-67
2023/07/09 04:05:47;;;;;;;12.90;8.93;;;;;;;;;;4951158;28;20633;-67
2023/07/09 04:08:12;;;;;;;14.80;9.60;;;;;;;;;;4951781;28;20275;-68
2023/07/09 04:10:37;;;;;;;15.30;10.30;;;;;;;;;;4950857;28;20671;-68
2023/07/09 04:13:02;;;;;;;15.18;9.32;;;;;;;;;;4951181;28;21226;-68
2023/07/09 04:15:28;;;;;;;15.55;10.18;;;;;;;;;;4951119;28;20295;-68
2023/07/09 04:17:53;;;;;;;18.38;11.43;;;;;;;;;;4947718;28;20263;-67
2023/07/09 04:20:18;;;;;;;13.82;11.07;;;;;;;;;;4951943;28;20215;-67
2023/07/09 04:22:44;;;;;;;14.27;9.55;;;;;;;;;;4965739;28;20185;-68
2023/07/09 04:25:10;;;;;;;14.10;11.10;;;;;;;;;;4950462;28;20204;-68
2023/07/09 04:27:35;;;;;;;14.68;9.13;;;;;;;;;;4949017;28;20192;-67
2023/07/09 04:30:00;;;;;;;17.70;9.30;;;;;;;;;;4950127;28;20188;-67
2023/07/09 04:32:26;;;;;;;14.85;9.57;;;;;;;;;;4950418;28;20545;-67
2023/07/09 04:34:51;;;;;;;14.38;9.93;;;;;;;;;;4949502;28;20211;-68
2023/07/09 04:37:16;;;;;;;16.02;11.57;;;;;;;;;;4948833;28;20555;-67
2023/07/09 04:39:42;;;;;;;18.05;11.70;;;;;;;;;;4949624;28;20584;-67
2023/07/09 04:42:11;;;;;;;15.20;10.38;;;;;;;;;;4949971;28;20194;-68
2023/07/09 04:44:36;;;;;;;16.23;11.23;;;;;;;;;;4949439;28;20299;-68
2023/07/09 04:47:01;;;;;;;16.60;10.48;;;;;;;;;;4950253;28;20193;-67
2023/07/09 04:49:27;;;;;;;14.98;10.20;;;;;;;;;;4944845;28;20191;-68
2023/07/09 04:51:52;;;;;;;13.85;10.52;;;;;;;;;;4949218;28;20188;-67
2023/07/09 04:54:17;;;;;;;20.92;11.70;;;;;;;;;;4948564;28;20189;-67
2023/07/09 04:56:45;;;;;;;16.10;11.98;;;;;;;;;;4948679;28;20211;-67
2023/07/09 04:59:11;;;;;;;16.23;11.90;;;;;;;;;;4950157;28;20318;-67
2023/07/09 05:01:36;;;;;;;13.63;10.65;;;;;;;;;;4948648;28;20859;-67
2023/07/09 05:04:01;;;;;;;13.77;9.85;;;;;;;;;;4946855;28;20180;-67
2023/07/09 05:06:27;;;;;;;17.73;10.63;;;;;;;;;;4950069;28;20864;-67
2023/07/09 05:08:52;;;;;;;21.48;11.45;;;;;;;;;;4935575;28;20446;-67
2023/07/09 05:11:17;;;;;;;18.13;12.17;;;;;;;;;;4930377;28;20192;-67
2023/07/09 05:13:42;;;;;;;14.90;10.75;;;;;;;;;;4929764;28;20449;-67
2023/07/09 05:16:07;;;;;;;16.27;10.38;;;;;;;;;;4934542;28;20221;-67
2023/07/09 05:18:33;;;;;;;16.85;10.55;;;;;;;;;;4930633;28;21096;-67
2023/07/09 05:20:58;;;;;;;17.77;11.63;;;;;;;;;;4931643;28;20267;-67
2023/07/09 05:23:26;;;;;;;16.42;10.82;;;;;;;;;;4929315;28;20189;-67
2023/07/09 05:26:02;;;;;;;14.52;10.18;;;;;;;;;;4931038;28;20872;-67
2023/07/09 05:28:27;;;;;;;14.30;10.10;;;;;;;;;;4928945;28;20192;-67
2023/07/09 05:30:53;;;;;;;13.02;10.57;;;;;;;;;;4930583;28;20426;-68
2023/07/09 05:33:18;;;;;;;14.80;11.52;;;;;;;;;;4930317;28;20189;-67
2023/07/09 05:35:43;;;;;;;13.57;10.05;;;;;;;;;;4928492;28;20216;-67
2023/07/09 05:38:09;;;;;;;15.80;10.95;;;;;;;;;;4933286;28;20588;-66
2023/07/09 05:40:34;;;;;;;16.70;11.57;;;;;;;;;;4935181;28;20209;-67
2023/07/09 05:42:59;;;;;;;13.95;10.07;;;;;;;;;;4936894;28;20184;-66
2023/07/09 05:45:24;;;;;;;14.02;11.00;;;;;;;;;;4936512;28;20826;-67
2023/07/09 05:47:49;;;;;;;16.65;10.10;;;;;;;;;;4931078;28;21865;-67
2023/07/09 05:50:15;;;;;;;18.33;13.30;;;;;;;;;;4931722;28;20637;-66
2023/07/09 05:52:40;;;;;;;15.38;11.80;;;;;;;;;;4932698;28;20439;-67
2023/07/09 05:55:05;;;;;;;16.38;12.38;;;;;;;;;;4931151;28;20208;-67
2023/07/09 05:57:31;;;;;;;19.13;11.95;;;;;;;;;;4930842;28;20906;-67
2023/07/09 05:59:56;;;;;;;19.48;9.77;;;;;;;;;;4929657;28;20213;-67
2023/07/09 06:02:22;;;;;;;15.60;11.82;;;;;;;;;;4929908;28;20197;-67
2023/07/09 06:04:50;;;;;;;17.25;12.27;;;;;;;;;;4931388;28;20208;-67
2023/07/09 06:07:15;;;;;;;16.45;11.60;;;;;;;;;;4931391;28;20619;-67
2023/07/09 06:09:41;;;;;;;16.40;12.40;;;;;;;;;;4932316;28;20200;-67
2023/07/09 06:12:06;;;;;;;17.25;11.65;;;;;;;;;;4930466;28;20221;-68
2023/07/09 06:14:35;;;;;;;16.02;11.05;;;;;;;;;;4930981;28;20275;-66
2023/07/09 06:17:00;;;;;;;17.65;12.27;;;;;;;;;;4972147;23;20874;-71
2023/07/09 06:19:25;;;;;;;15.90;12.30;;;;;;;;;;4958027;28;20222;-71
2023/07/09 06:21:51;;;;;;;17.55;12.20;;;;;;;;;;4956275;28;20180;-71
2023/07/09 06:24:16;;;;;;;15.15;11.90;;;;;;;;;;4955150;28;20196;-71
2023/07/09 06:26:41;;;;;;;15.60;11.77;;;;;;;;;;4941242;28;20219;-71
2023/07/09 06:29:07;;;;;;;16.73;11.53;;;;;;;;;;4938752;28;20192;-71
2023/07/09 06:31:32;;;;;;;15.82;11.23;;;;;;;;;;4937692;28;20823;-71
2023/07/09 06:33:57;;;;;;;18.10;12.75;;;;;;;;;;4935960;28;20192;-70
2023/07/09 06:36:22;;;;;;;11.87;9.43;;;;;;;;;;4937592;28;20294;-71
2023/07/09 06:38:48;;;;;;;18.43;11.70;;;;;;;;;;4937414;28;20453;-70
2023/07/09 06:41:14;;;;;;;16.02;11.30;;;;;;;;;;4937986;28;20431;-71
2023/07/09 06:43:39;;;;;;;12.82;9.82;;;;;;;;;;4940572;28;20554;-71
2023/07/09 06:46:05;;;;;;;16.92;12.18;;;;;;;;;;4941034;28;20200;-71
2023/07/09 06:48:30;;;;;;;16.40;10.93;;;;;;;;;;4941547;28;20196;-71
2023/07/09 06:50:56;;;;;;;9.07;7.93;;;;;;;;;;4965445;28;20189;-72
2023/07/09 06:53:21;;;;;;;15.50;11.10;;;;;;;;;;4936091;28;20731;-72
2023/07/09 06:55:48;;;;;;;16.08;9.30;;;;;;;;;;4937008;28;20275;-72
2023/07/09 06:58:14;;;;;;;10.48;7.60;;;;;;;;;;4940715;28;20184;-69
2023/07/09 07:00:39;;;;;;;18.08;10.73;;;;;;;;;;4938276;28;20252;-71
2023/07/09 07:03:05;;;;;;;14.27;9.43;;;;;;;;;;4941579;28;20180;-71
2023/07/09 07:05:31;;;;;;;12.10;8.85;;;;;;;;;;4940579;28;20205;-71
2023/07/09 07:07:56;;;;;;;14.98;9.88;;;;;;;;;;4941624;28;20308;-71
2023/07/09 07:10:21;;;;;;;17.65;9.70;;;;;;;;;;4937485;28;21027;-70
2023/07/09 07:12:47;;;;;;;11.80;9.10;;;;;;;;;;4937603;28;20655;-71
2023/07/09 07:15:14;;;;;;;14.70;10.57;;;;;;;;;;4938732;28;20465;-72
2023/07/09 07:17:39;;;;;;;14.60;10.75;;;;;;;;;;4938188;28;20192;-72
2023/07/09 07:20:05;;;;;;;13.23;11.30;;;;;;;;;;4937855;28;20593;-72
2023/07/09 07:22:30;;;;;;;13.80;9.48;;;;;;;;;;4938650;28;20605;-72
2023/07/09 07:24:55;;;;;;;13.45;10.23;;;;;;;;;;4946328;28;20185;-72
2023/07/09 07:27:21;;;;;;;15.07;9.10;;;;;;;;;;4940209;28;20651;-72
2023/07/09 07:29:46;;;;;;;16.52;9.80;;;;;;;;;;4948084;28;20513;-72
2023/07/09 07:32:11;;;;;;;13.93;10.10;;;;;;;;;;4941422;28;20248;-72
2023/07/09 07:34:37;;;;;;;14.63;10.33;;;;;;;;;;4940340;28;20480;-71
2023/07/09 07:37:02;;;;;;;16.43;9.83;;;;;;;;;;4940963;28;20512;-72
2023/07/09 07:39:27;;;;;;;12.70;8.82;;;;;;;;;;4943184;28;20473;-72
2023/07/09 07:41:52;;;;;;;11.20;9.10;;;;;;;;;;4941924;28;20267;-72
2023/07/09 07:44:18;;;;;;;15.83;10.10;;;;;;;;;;4941448;28;20184;-72
2023/07/09 07:46:43;;;;;;;13.98;9.48;;;;;;;;;;4939804;28;21210;-72
2023/07/09 07:49:08;;;;;;;11.48;9.07;;;;;;;;;;4941406;28;20191;-73
2023/07/09 07:51:33;;;;;;;14.40;10.80;;;;;;;;;;4941428;28;20202;-71
2023/07/09 07:53:59;;;;;;;13.63;10.23;;;;;;;;;;4941947;28;20430;-72
2023/07/09 07:56:25;;;;;;;16.05;11.52;;;;;;;;;;4942676;28;20940;-71
2023/07/09 07:58:51;;;;;;;14.15;12.43;;;;;;;;;;4943162;28;20678;-71
2023/07/09 08:01:16;;;;;;;16.50;12.63;;;;;;;;;;4943997;28;20199;-72
2023/07/09 08:03:41;;;;;;;16.23;12.48;;;;;;;;;;4950392;28;20179;-71
2023/07/09 08:06:06;;;;;;;14.63;10.90;;;;;;;;;;4943010;28;20214;-71
2023/07/09 08:08:32;;;;;;;15.15;10.73;;;;;;;;;;4943215;28;20215;-71
2023/07/09 08:11:07;;;;;;;13.53;9.97;;;;;;;;;;4942598;28;20190;-72
2023/07/09 08:13:36;;;;;;;16.45;11.07;;;;;;;;;;4943399;28;20433;-73
2023/07/09 08:16:01;;;;;;;12.55;9.48;;;;;;;;;;4946617;28;20838;-73
2023/07/09 08:18:27;;;;;;;12.75;8.93;;;;;;;;;;4943249;28;20194;-72
2023/07/09 08:20:52;;;;;;;11.80;9.40;;;;;;;;;;4941534;28;20215;-72
2023/07/09 08:23:17;;;;;;;13.17;9.10;;;;;;;;;;4944078;28;20422;-71
2023/07/09 08:25:42;;;;;;;10.67;8.10;;;;;;;;;;4944024;28;20449;-72
2023/07/09 08:28:08;;;;;;;12.47;9.10;;;;;;;;;;4942337;28;20429;-72
2023/07/09 08:30:33;;;;;;;11.40;8.35;;;;;;;;;;4941740;28;20476;-74
2023/07/09 08:32:58;;;;;;;12.10;8.30;;;;;;;;;;4943070;28;20188;-74
2023/07/09 08:35:23;;;;;;;9.93;7.50;;;;;;;;;;4966600;28;20583;-74
2023/07/09 08:37:49;;;;;;;13.80;8.50;;;;;;;;;;4940459;28;20224;-75
2023/07/09 08:40:15;;;;;;;13.23;7.50;;;;;;;;;;4942675;28;20475;-72
2023/07/09 08:42:45;;;;;;;12.80;9.13;;;;;;;;;;4944797;28;20197;-72
2023/07/09 08:45:16;;;;;;;10.48;7.15;;;;;;;;;;4941754;28;20291;-75
2023/07/09 08:47:45;;;;;;;12.30;7.75;;;;;;;;;;4941176;28;20183;-73
2023/07/09 08:50:18;;;;;;;10.38;8.15;;;;;;;;;;4939722;28;20199;-73
2023/07/09 08:52:45;;;;;;;9.15;6.78;;;;;;;;;;4942617;28;21326;-74
2023/07/09 08:55:16;;;;;;;11.18;6.70;;;;;;;;;;4939781;28;20305;-74
2023/07/09 08:57:47;;;;;;;12.15;7.68;;;;;;;;;;4941434;28;20202;-74
2023/07/09 09:00:13;;;;;;;10.70;6.90;;;;;;;;;;4940251;28;20251;-73
2023/07/09 09:02:58;;;;;;;9.03;6.80;;;;;;;;;;4939920;28;20182;-74
2023/07/09 09:05:24;;;;;;;8.52;6.72;;;;;;;;;;4943299;28;20508;-74
2023/07/09 09:07:58;;;;;;;10.65;8.43;;;;;;;;;;4947493;28;20188;-72
2023/07/09 09:10:28;;;;;;;11.60;8.32;;;;;;;;;;4941874;28;20202;-72
2023/07/09 09:13:04;;;;;;;13.00;7.15;;;;;;;;;;4940400;28;20192;-72
2023/07/09 09:15:30;;;;;;;10.10;8.27;;;;;;;;;;4943009;28;20210;-73
2023/07/09 09:17:57;;;;;;;12.02;8.98;;;;;;;;;;4941536;28;20183;-72
2023/07/09 09:20:23;;;;;;;11.57;8.30;;;;;;;;;;4941056;28;20714;-72
2023/07/09 09:22:57;;;;;;;11.48;6.72;;;;;;;;;;4939461;28;20305;-71
2023/07/09 09:25:24;;;;;;;12.52;8.35;;;;;;;;;;4943606;28;20333;-72
2023/07/09 09:27:49;;;;;;;12.18;8.00;;;;;;;;;;4939676;28;20581;-73
2023/07/09 09:30:16;;;;;;;11.80;7.18;;;;;;;;;;4941202;28;20198;-73
2023/07/09 09:32:43;;;;;;;11.02;7.57;;;;;;;;;;4941244;28;20192;-72
2023/07/09 09:35:16;;;;;;;9.93;7.47;;;;;;;;;;4938833;28;20302;-72
2023/07/09 09:37:44;;;;;;;10.02;7.70;;;;;;;;;;4940888;28;20187;-72
2023/07/09 09:40:09;;;;;;;9.23;6.95;;;;;;;;;;4941041;28;20223;-72
2023/07/09 09:42:35;;;;;;;9.05;7.00;;;;;;;;;;4941489;28;20657;-72
2023/07/09 09:45:00;;;;;;;9.43;6.55;;;;;;;;;;4940287;28;20208;-72
2023/07/09 09:47:26;;;;;;;12.07;8.10;;;;;;;;;;4938809;28;20512;-72
2023/07/09 09:49:52;;;;;;;12.75;7.40;;;;;;;;;;4941840;28;20863;-72
2023/07/09 09:52:18;;;;;;;11.07;7.88;;;;;;;;;;4939957;28;20191;-73
2023/07/09 09:54:54;;;;;;;9.57;7.13;;;;;;;;;;4939400;28;20194;-72
2023/07/09 09:57:21;;;;;;;9.00;7.00;;;;;;;;;;4938476;28;20691;-72
2023/07/09 09:59:47;;;;;;;8.43;5.85;;;;;;;;;;4941162;28;20208;-72
2023/07/09 10:02:15;;;;;;;10.48;6.15;;;;;;;;;;4940800;28;20186;-73
2023/07/09 10:04:40;;;;;;;8.18;5.78;;;;;;;;;;4940809;28;20188;-73
2023/07/09 10:07:07;;;;;;;7.90;6.47;;;;;;;;;;4937961;28;20608;-72
2023/07/09 10:09:43;;;;;;;9.65;6.90;;;;;;;;;;4940282;28;20202;-72
2023/07/09 10:12:18;;;;;;;9.32;5.93;;;;;;;;;;4939563;28;20682;-72
2023/07/09 10:14:43;;;;;;;9.57;6.35;;;;;;;;;;4942504;28;20293;-72
2023/07/09 10:17:20;;;;;;;9.70;7.88;;;;;;;;;;4939872;28;20334;-73
2023/07/09 10:20:01;;;;;;;10.10;6.82;;;;;;;;;;4942447;28;20212;-71
2023/07/09 10:22:26;;;;;;;8.80;7.72;;;;;;;;;;4949963;28;20202;-71
2023/07/09 10:24:56;;;;;;;9.67;7.93;;;;;;;;;;4947629;28;20191;-72
2023/07/09 10:27:28;;;;;;;11.63;7.82;;;;;;;;;;4948739;28;20191;-72
2023/07/09 10:30:02;;;;;;;8.57;6.97;;;;;;;;;;4950397;28;20291;-71
2023/07/09 10:32:30;;;;;;;11.23;7.50;;;;;;;;;;4949656;28;20179;-71
2023/07/09 10:35:00;;;;;;;8.10;7.10;;;;;;;;;;4939504;28;20265;-72
2023/07/09 10:37:31;;;;;;;10.98;7.82;;;;;;;;;;4939880;28;20192;-71
2023/07/09 10:39:58;;;;;;;10.60;6.95;;;;;;;;;;4967496;28;20225;-72
2023/07/09 10:42:37;;;;;;;9.68;7.10;;;;;;;;;;4940384;28;20183;-72
2023/07/09 10:45:07;;;;;;;7.60;6.80;;;;;;;;;;4940822;28;20207;-72
2023/07/09 10:47:44;;;;;;;7.32;6.18;;;;;;;;;;4940518;28;20180;-72
2023/07/09 10:50:14;;;;;;;8.52;6.68;;;;;;;;;;4941309;28;20194;-73
2023/07/09 10:52:42;;;;;;;7.55;6.25;;;;;;;;;;4937772;28;20207;-72
2023/07/09 10:55:32;;;;;;;11.18;6.80;;;;;;;;;;4941054;28;20239;-72
2023/07/09 10:58:02;;;;;;;8.18;5.55;;;;;;;;;;4938715;28;20944;-72
2023/07/09 11:00:38;;;;;;;13.32;5.60;;;;;;;;;;4937702;28;20237;-72
2023/07/09 11:03:11;;;;;;;7.20;5.20;;;;;;;;;;4943463;28;20195;-72
2023/07/09 11:05:37;;;;;;;7.40;6.40;;;;;;;;;;4944525;28;20361;-72
2023/07/09 11:08:05;;;;;;;8.70;5.95;;;;;;;;;;4944408;28;20197;-72
2023/07/09 11:10:38;;;;;;;11.10;5.85;;;;;;;;;;4942139;28;20196;-73
2023/07/09 11:13:15;;;;;;;7.90;6.00;;;;;;;;;;4944252;28;20612;-73
2023/07/09 11:15:41;;;;;;;6.75;5.20;;;;;;;;;;4945971;28;20862;-73
2023/07/09 11:18:07;;;;;;;7.90;5.80;;;;;;;;;;4943402;28;20230;-72
2023/07/09 11:20:34;;;;;;;8.02;5.88;;;;;;;;;;4941448;28;20260;-73
2023/07/09 11:23:04;;;;;;;7.80;6.75;;;;;;;;;;4943142;28;20180;-72
2023/07/09 11:25:42;;;;;;;11.02;5.72;;;;;;;;;;4942569;28;20446;-73
2023/07/09 11:28:09;;;;;;;6.93;5.55;;;;;;;;;;4941794;28;20183;-72
2023/07/09 11:30:44;;;;;;;6.35;5.18;;;;;;;;;;4942844;28;20271;-73
2023/07/09 11:33:39;;;;;;;9.07;5.88;;;;;;;;;;4942861;28;20198;-72
2023/07/09 11:36:07;;;;;;;9.95;5.70;;;;;;;;;;4938631;28;21343;-73
2023/07/09 11:38:39;;;;;;;7.18;6.30;;;;;;;;;;4943450;28;20249;-72
2023/07/09 11:41:24;;;;;;;8.05;6.40;;;;;;;;;;4960694;28;20308;-73
2023/07/09 11:43:49;;;;;;;7.15;6.10;;;;;;;;;;4942616;28;20195;-73
2023/07/09 11:46:17;;;;;;;11.13;5.50;;;;;;;;;;4941634;28;20206;-74
2023/07/09 11:48:43;;;;;;;7.80;6.60;;;;;;;;;;4940698;28;21095;-73
2023/07/09 11:51:21;;;;;;;13.63;6.38;;;;;;;;;;4946430;28;20191;-73
2023/07/09 11:53:49;;;;;;;11.27;6.35;;;;;;;;;;4943874;28;20188;-72
2023/07/09 11:56:17;;;;;;;10.50;7.05;;;;;;;;;;4958110;28;20231;-73
2023/07/09 11:58:53;;;;;;;10.52;6.22;;;;;;;;;;4941604;28;20267;-73
2023/07/09 12:01:20;;;;;;;9.98;6.95;;;;;;;;;;4941316;28;20274;-72
2023/07/09 12:03:46;;;;;;;11.15;7.70;;;;;;;;;;4944946;28;20200;-73
2023/07/09 12:06:20;;;;;;;8.82;6.90;;;;;;;;;;4942501;28;20208;-72
2023/07/09 12:08:46;;;;;;;11.70;8.20;;;;;;;;;;4942709;28;20282;-73
2023/07/09 12:11:23;;;;;;;9.70;7.75;;;;;;;;;;4942659;28;20191;-72
2023/07/09 12:13:49;;;;;;;10.27;7.35;;;;;;;;;;4941197;28;20222;-72
2023/07/09 12:16:37;;;;;;;9.23;7.43;;;;;;;;;;4956583;23;21213;-68
2023/07/09 12:19:02;;;;;;;12.07;7.53;;;;;;;;;;4934780;28;20692;-68
2023/07/09 12:21:37;;;;;;;9.57;6.80;;;;;;;;;;4942909;28;20211;-68
2023/07/09 12:24:02;;;;;;;7.68;6.07;;;;;;;;;;4941250;28;20346;-67
2023/07/09 12:26:30;;;;;;;9.52;7.47;;;;;;;;;;4943486;28;20296;-67
2023/07/09 12:28:57;;;;;;;13.20;7.28;;;;;;;;;;4946918;28;20225;-67
2023/07/09 12:31:27;;;;;;;9.32;6.47;;;;;;;;;;4945486;28;20187;-69
2023/07/09 12:33:53;;;;;;;10.07;7.55;;;;;;;;;;4945054;28;20522;-67
2023/07/09 12:36:19;;;;;;;9.80;6.50;;;;;;;;;;4943310;28;20214;-68
2023/07/09 12:38:49;;;;;;;7.88;5.63;;;;;;;;;;4945080;28;20608;-69
2023/07/09 12:41:29;;;;;;;6.20;5.38;;;;;;;;;;4945186;28;21049;-68
2023/07/09 12:43:55;;;;;;;10.70;5.90;;;;;;;;;;4945248;28;20327;-67
2023/07/09 12:46:21;;;;;;;9.32;5.28;;;;;;;;;;4945953;28;20727;-67
2023/07/09 12:48:47;;;;;;;6.65;4.97;;;;;;;;;;4943167;28;21030;-68
2023/07/09 12:51:15;;;;;;;7.95;5.47;;;;;;;;;;4943474;28;20189;-69
2023/07/09 12:53:40;;;;;;;8.45;4.78;;;;;;;;;;4945117;28;20184;-69
2023/07/09 12:56:10;;;;;;;5.83;4.57;;;;;;;;;;4945370;28;20211;-69
2023/07/09 12:58:36;;;;;;;6.53;4.55;;;;;;;;;;4946174;28;21507;-68
2023/07/09 13:01:06;;;;;;;5.88;4.60;;;;;;;;;;4945043;28;20222;-68
2023/07/09 13:03:32;;;;;;;7.00;5.40;;;;;;;;;;4944962;28;20207;-69
2023/07/09 13:06:05;;;;;;;6.78;4.80;;;;;;;;;;4947425;28;20203;-67
2023/07/09 13:08:31;;;;;;;6.85;4.07;;;;;;;;;;4956387;28;20184;-68
2023/07/09 13:10:57;;;;;;;8.45;2.38;;;;;;;;;;4958174;28;20560;-67
2023/07/09 13:13:23;;;;;;;3.97;2.03;;;;;;;;;;4955061;28;20183;-67
2023/07/09 13:15:56;;;;;;;4.68;2.15;;;;;;;;;;4956285;28;20215;-67
2023/07/09 13:18:22;;;;;;;4.88;1.63;;;;;;;;;;4959867;28;20200;-67
2023/07/09 13:20:47;;;;;;;5.75;1.63;;;;;;;;;;4957457;28;20563;-69
2023/07/09 13:23:14;;;;;;;2.60;2.05;;;;;;;;;;4959232;28;21252;-67
2023/07/09 13:25:40;;;;;;;4.97;2.17;;;;;;;;;;4958049;28;20224;-68
2023/07/09 13:28:09;;;;;;;3.55;2.15;;;;;;;;;;4958731;28;20272;-68
2023/07/09 13:30:34;;;;;;;5.32;2.72;;;;;;;;;;4957627;28;20323;-68
2023/07/09 13:32:59;;;;;;;5.47;2.50;;;;;;;;;;4956502;28;20322;-67
2023/07/09 13:35:25;;;;;;;3.67;2.60;;;;;;;;;;4959106;28;20204;-68
2023/07/09 13:37:51;;;;;;;5.22;2.55;;;;;;;;;;4954242;28;20982;-67
2023/07/09 13:40:16;;;;;;;7.30;2.80;;;;;;;;;;4956518;28;20227;-67
2023/07/09 13:42:42;;;;;;;6.32;3.10;;;;;;;;;;4959119;28;20180;-68
2023/07/09 13:45:18;;;;;;;10.15;3.38;;;;;;;;;;4956436;28;20195;-67
2023/07/09 13:47:44;;;;;;;4.28;2.95;;;;;;;;;;4973217;28;20176;-67
2023/07/09 13:50:09;;;;;;;4.57;2.80;;;;;;;;;;4947926;28;20618;-67
2023/07/09 13:52:34;;;;;;;4.20;2.55;;;;;;;;;;4943506;28;20184;-67
2023/07/09 13:55:00;;;;;;;6.55;3.22;;;;;;;;;;4945468;28;21875;-67
2023/07/09 13:57:25;;;;;;;6.82;3.40;;;;;;;;;;4944955;28;20245;-68
2023/07/09 13:59:51;;;;;;;5.72;3.00;;;;;;;;;;4945492;28;21632;-67
2023/07/09 14:02:31;;;;;;;8.10;2.97;;;;;;;;;;4958255;28;20190;-67
2023/07/09 14:04:57;;;;;;;5.40;2.80;;;;;;;;;;4945509;28;20188;-67
2023/07/09 14:07:25;;;;;;;5.40;2.83;;;;;;;;;;4944500;28;20204;-67
2023/07/09 14:09:50;;;;;;;6.50;2.88;;;;;;;;;;4943699;28;20292;-68
2023/07/09 14:12:15;;;;;;;7.95;3.13;;;;;;;;;;4957724;28;21608;-68
2023/07/09 14:14:44;;;;;;;10.38;3.35;;;;;;;;;;4951010;28;20685;-68
2023/07/09 14:17:10;;;;;;;8.43;3.78;;;;;;;;;;4945621;28;20234;-68
2023/07/09 14:19:35;;;;;;;9.50;3.25;;;;;;;;;;4944418;28;20276;-68
2023/07/09 14:22:00;;;;;;;12.63;4.05;;;;;;;;;;4943992;28;20187;-67
2023/07/09 14:24:26;;;;;;;8.75;3.03;;;;;;;;;;4942643;28;20279;-67
2023/07/09 14:26:53;;;;;;;4.93;3.90;;;;;;;;;;4945871;28;20517;-67
2023/07/09 14:29:18;;;;;;;8.48;4.00;;;;;;;;;;4941855;28;20781;-67
2023/07/09 14:31:44;;;;;;;11.15;4.40;;;;;;;;;;4944294;28;20225;-68
2023/07/09 14:34:18;;;;;;;12.23;5.45;;;;;;;;;;4943476;28;20279;-67
2023/07/09 14:36:43;;;;;;;12.75;5.57;;;;;;;;;;4949760;28;20716;-69